Time;durP1;ratioP1;P1;durP2;ratioP2;P2;SDS_P1;SDS_P2;PMS_P1;PMS_P2;Temp;Humidity;BMP_temperature;BMP_pressure;BME280_temperature;BME280_humidity;BME280_pressure;Samples;Min_cycle;Max_cycle;Signal;HPM_P1;HPM_P2
2023/10/01 00:01:43;;;;;;;13.30;9.82;;;15.20;99.90;;;;;;5044472;28;20056;-26
2023/10/01 00:04:09;;;;;;;16.55;11.27;;;15.20;99.90;;;;;;5042834;28;20044;-26
2023/10/01 00:06:35;;;;;;;11.70;9.50;;;15.10;99.90;;;;;;5046099;28;20037;-26
2023/10/01 00:09:08;;;;;;;13.30;9.27;;;15.10;99.90;;;;;;5034176;28;20049;-26
2023/10/01 00:11:38;;;;;;;13.37;10.07;;;15.10;99.90;;;;;;5029416;28;20044;-26
2023/10/01 00:14:06;;;;;;;13.77;10.02;;;15.10;99.90;;;;;;5022553;28;20049;-26
2023/10/01 00:16:32;;;;;;;16.25;10.60;;;15.00;99.90;;;;;;5033450;28;20050;-26
2023/10/01 00:18:59;;;;;;;13.13;9.85;;;14.90;99.90;;;;;;5041829;28;20033;-26
2023/10/01 00:21:27;;;;;;;16.13;11.63;;;14.90;99.90;;;;;;5038179;28;20090;-26
2023/10/01 00:23:54;;;;;;;14.65;11.30;;;14.80;99.90;;;;;;5019794;28;20081;-26
2023/10/01 00:26:20;;;;;;;16.95;12.13;;;14.80;99.90;;;;;;5035245;28;20113;-26
2023/10/01 00:28:48;;;;;;;12.88;11.00;;;14.70;99.90;;;;;;5044211;28;20079;-26
2023/10/01 00:31:14;;;;;;;15.55;11.07;;;14.70;99.90;;;;;;5032597;28;20073;-26
2023/10/01 00:33:42;;;;;;;19.08;12.25;;;14.70;99.90;;;;;;5038620;28;20083;-26
2023/10/01 00:36:08;;;;;;;16.65;11.25;;;14.60;99.90;;;;;;5044613;28;20041;-26
2023/10/01 00:38:34;;;;;;;16.55;11.55;;;14.60;99.90;;;;;;5036828;28;20106;-26
2023/10/01 00:40:59;;;;;;;17.80;11.50;;;14.60;99.90;;;;;;5038678;28;20527;-26
2023/10/01 00:43:26;;;;;;;16.92;10.93;;;14.60;99.90;;;;;;5047010;28;20528;-26
2023/10/01 00:45:53;;;;;;;14.82;10.63;;;14.50;99.90;;;;;;5035793;28;20045;-26
2023/10/01 00:48:22;;;;;;;15.90;11.27;;;14.50;99.90;;;;;;5040016;28;20132;-26
2023/10/01 00:50:54;;;;;;;13.00;10.48;;;14.50;99.90;;;;;;5037894;28;20040;-26
2023/10/01 00:53:20;;;;;;;12.88;10.48;;;14.50;99.90;;;;;;5045974;28;20373;-28
2023/10/01 00:55:48;;;;;;;14.68;10.90;;;14.40;99.90;;;;;;5040384;28;20163;-26
2023/10/01 00:58:18;;;;;;;17.00;11.88;;;14.40;99.90;;;;;;5039302;28;20045;-29
2023/10/01 01:00:45;;;;;;;15.75;10.68;;;14.40;99.90;;;;;;5035922;28;20055;-26
2023/10/01 01:03:19;;;;;;;17.70;12.68;;;14.50;99.90;;;;;;5026804;28;20062;-27
2023/10/01 01:06:12;;;;;;;18.67;10.98;;;14.50;99.90;;;;;;5037976;28;20042;-27
2023/10/01 01:08:49;;;;;;;13.68;11.27;;;14.50;99.90;;;;;;5014402;28;20515;-27
2023/10/01 01:11:15;;;;;;;15.38;11.77;;;14.50;99.90;;;;;;5041521;28;20041;-27
2023/10/01 01:13:43;;;;;;;13.82;11.00;;;14.50;99.90;;;;;;5047531;28;20519;-27
2023/10/01 01:16:13;;;;;;;19.80;12.45;;;14.50;99.90;;;;;;5037713;28;20428;-26
2023/10/01 01:18:42;;;;;;;18.85;12.25;;;14.60;99.90;;;;;;5024676;28;20041;-27
2023/10/01 01:21:13;;;;;;;17.52;12.57;;;14.60;99.90;;;;;;5036297;28;20467;-27
2023/10/01 01:23:41;;;;;;;16.25;11.35;;;14.60;99.90;;;;;;5039935;28;20446;-27
2023/10/01 01:26:10;;;;;;;16.08;12.30;;;14.60;99.90;;;;;;5044641;28;20053;-28
2023/10/01 01:28:36;;;;;;;15.18;11.93;;;14.60;99.90;;;;;;5041346;28;20043;-28
2023/10/01 01:31:08;;;;;;;16.45;12.32;;;14.70;99.90;;;;;;5032576;28;20044;-26
2023/10/01 01:33:40;;;;;;;15.45;12.00;;;14.70;99.90;;;;;;5032774;28;20045;-27
2023/10/01 01:36:09;;;;;;;15.63;12.45;;;14.70;99.90;;;;;;5027886;28;20037;-28
2023/10/01 01:38:37;;;;;;;18.20;12.90;;;14.70;99.90;;;;;;5039786;28;20399;-29
2023/10/01 01:41:03;;;;;;;16.35;12.75;;;14.70;99.90;;;;;;5033974;28;20075;-26
2023/10/01 01:43:32;;;;;;;16.50;12.57;;;14.80;99.90;;;;;;5043339;28;20037;-28
2023/10/01 01:46:00;;;;;;;17.92;13.30;;;14.80;99.90;;;;;;5038783;28;20412;-26
2023/10/01 01:51:00;;;;;;;20.02;12.63;;;14.80;99.90;;;;;;5041287;28;20045;-26
2023/10/01 01:53:35;;;;;;;17.67;13.82;;;14.80;99.90;;;;;;5034370;28;20120;-28
2023/10/01 01:56:13;;;;;;;15.73;12.50;;;14.80;99.90;;;;;;5044752;28;20045;-27
2023/10/01 01:58:40;;;;;;;19.50;14.02;;;14.80;99.90;;;;;;5035271;28;20076;-26
2023/10/01 02:03:40;;;;;;;20.65;14.77;;;14.80;99.90;;;;;;5046328;28;20510;-28
2023/10/01 02:06:07;;;;;;;17.08;13.82;;;14.80;99.90;;;;;;5044596;28;20033;-28
2023/10/01 02:08:49;;;;;;;19.83;14.32;;;14.80;99.90;;;;;;5027973;28;20114;-27
2023/10/01 02:11:19;;;;;;;17.05;13.82;;;14.80;99.90;;;;;;5037171;28;20072;-26
2023/10/01 02:13:46;;;;;;;16.05;13.93;;;14.80;99.90;;;;;;5030763;28;20060;-27
2023/10/01 02:16:34;;;;;;;20.00;14.55;;;14.80;99.90;;;;;;5026800;28;20496;-28
2023/10/01 02:19:18;;;;;;;19.33;14.55;;;14.80;99.90;;;;;;5044829;28;20036;-26
2023/10/01 02:22:00;;;;;;;17.65;14.45;;;14.80;99.90;;;;;;5043646;28;20091;-26
2023/10/01 02:24:45;;;;;;;17.83;14.43;;;14.80;99.90;;;;;;5040252;28;20124;-28
2023/10/01 02:27:18;;;;;;;16.92;13.82;;;14.80;99.90;;;;;;5042008;28;20030;-25
2023/10/01 02:32:29;;;;;;;20.30;15.10;;;14.80;99.90;;;;;;5038515;28;19917;-25
2023/10/01 02:34:57;;;;;;;22.38;15.80;;;14.80;99.90;;;;;;5047665;28;20492;-25
2023/10/01 02:37:29;;;;;;;17.50;15.15;;;14.80;99.90;;;;;;5020509;28;20044;-26
2023/10/01 02:39:59;;;;;;;20.95;15.07;;;14.80;99.90;;;;;;5029538;28;20583;-25
2023/10/01 02:42:28;;;;;;;19.27;15.65;;;14.80;99.90;;;;;;5034700;28;20404;-26
2023/10/01 02:44:54;;;;;;;19.52;15.35;;;14.80;99.90;;;;;;5034700;28;20492;-24
2023/10/01 02:47:20;;;;;;;21.25;15.98;;;14.80;99.90;;;;;;5035104;28;20033;-25
2023/10/01 02:49:52;;;;;;;22.27;16.83;;;14.80;99.90;;;;;;5034984;28;20171;-24
2023/10/01 02:52:36;;;;;;;18.92;15.48;;;14.80;99.90;;;;;;5043786;28;20044;-24
2023/10/01 02:55:06;;;;;;;19.13;16.67;;;14.80;99.90;;;;;;5047830;28;20120;-24
2023/10/01 02:57:33;;;;;;;18.35;14.68;;;14.70;99.90;;;;;;5037371;28;20049;-25
2023/10/01 03:02:44;;;;;;;20.52;16.10;;;14.80;99.90;;;;;;5039931;28;20049;-25
2023/10/01 03:05:19;;;;;;;19.92;13.98;;;14.80;99.90;;;;;;5043166;28;20037;-25
2023/10/01 03:07:45;;;;;;;19.20;15.32;;;14.80;99.90;;;;;;5042217;28;20037;-24
2023/10/01 03:10:25;;;;;;;19.63;15.60;;;14.80;99.90;;;;;;5042589;28;20422;-24
2023/10/01 03:12:58;;;;;;;17.92;15.38;;;14.80;99.90;;;;;;5038820;28;20052;-24
2023/10/01 03:15:27;;;;;;;19.95;14.70;;;14.80;99.90;;;;;;5038450;28;20029;-24
2023/10/01 03:17:57;;;;;;;20.52;15.63;;;14.80;99.90;;;;;;5047113;28;20128;-25
2023/10/01 03:23:05;;;;;;;18.75;14.50;;;14.80;99.90;;;;;;5047976;28;20044;-24
2023/10/01 03:25:40;;;;;;;16.55;14.05;;;14.80;99.90;;;;;;5047206;28;20057;-24
2023/10/01 03:28:11;;;;;;;17.67;14.65;;;14.80;99.90;;;;;;5040234;28;20396;-24
2023/10/01 03:30:40;;;;;;;18.85;14.55;;;14.80;99.90;;;;;;5030911;28;20045;-24
2023/10/01 03:33:07;;;;;;;19.42;14.15;;;14.80;99.90;;;;;;5023079;28;20033;-24
2023/10/01 03:35:36;;;;;;;17.92;12.88;;;14.80;99.90;;;;;;5043136;28;20502;-24
2023/10/01 03:38:14;;;;;;;17.80;13.48;;;14.80;99.90;;;;;;5034079;28;20518;-24
2023/10/01 03:43:31;;;;;;;18.33;13.13;;;14.80;99.90;;;;;;5047280;28;20045;-25
2023/10/01 03:49:33;;;;;;;16.50;12.73;;;14.80;99.90;;;;;;5037132;28;20083;-24
2023/10/01 03:51:58;;;;;;;15.40;12.93;;;14.80;99.90;;;;;;5017530;28;20096;-24
2023/10/01 03:54:51;;;;;;;16.73;12.88;;;14.80;99.90;;;;;;5042926;28;20106;-24
2023/10/01 03:57:16;;;;;;;19.00;12.95;;;14.80;99.90;;;;;;5045248;28;20041;-24
2023/10/01 03:59:51;;;;;;;17.10;13.05;;;14.80;99.90;;;;;;5029367;28;20084;-24
2023/10/01 04:05:21;;;;;;;15.88;12.60;;;14.80;99.90;;;;;;5040148;28;20096;-23
2023/10/01 04:07:50;;;;;;;17.17;12.75;;;14.80;99.90;;;;;;5040920;28;20083;-24
2023/10/01 04:10:28;;;;;;;16.17;11.98;;;14.80;99.90;;;;;;5037238;28;20099;-24
2023/10/01 04:12:55;;;;;;;16.15;12.52;;;14.80;99.90;;;;;;5039361;28;20046;-24
2023/10/01 04:15:31;;;;;;;15.50;12.57;;;14.80;99.90;;;;;;5045848;28;20041;-24
2023/10/01 04:23:29;;;;;;;15.47;11.67;;;14.80;99.90;;;;;;5037192;28;20140;-24
2023/10/01 04:26:06;;;;;;;15.95;11.57;;;14.80;99.90;;;;;;5037422;28;20045;-24
2023/10/01 04:28:35;;;;;;;19.50;12.52;;;14.80;99.90;;;;;;5041046;28;20041;-23
2023/10/01 04:31:03;;;;;;;16.70;11.48;;;14.80;99.90;;;;;;5036796;28;20042;-24
2023/10/01 04:33:32;;;;;;;16.73;12.10;;;14.80;99.90;;;;;;5035638;28;20057;-24
2023/10/01 04:36:01;;;;;;;15.95;12.35;;;14.80;99.90;;;;;;5045189;28;20450;-23
2023/10/01 04:38:32;;;;;;;17.95;12.27;;;14.80;99.90;;;;;;5045639;28;20047;-24
2023/10/01 04:41:03;;;;;;;16.52;12.52;;;14.80;99.90;;;;;;5043163;28;20091;-24
2023/10/01 04:43:34;;;;;;;17.45;12.23;;;14.80;99.90;;;;;;5024871;28;20053;-25
2023/10/01 04:46:08;;;;;;;15.77;12.23;;;14.80;99.90;;;;;;5049134;28;20080;-24
2023/10/01 04:48:37;;;;;;;17.60;12.52;;;14.80;99.90;;;;;;5041516;28;20045;-23
2023/10/01 04:51:07;;;;;;;16.40;11.45;;;14.80;99.90;;;;;;5046093;28;20552;-24
2023/10/01 04:53:33;;;;;;;14.48;12.00;;;14.80;99.90;;;;;;5040468;28;20048;-24
2023/10/01 04:56:06;;;;;;;20.48;12.80;;;14.80;99.90;;;;;;5041071;28;20493;-25
2023/10/01 04:58:36;;;;;;;14.17;11.80;;;14.80;99.90;;;;;;5027197;28;20431;-24
2023/10/01 05:01:11;;;;;;;14.88;11.80;;;14.80;99.90;;;;;;5043528;28;20064;-23
2023/10/01 05:03:40;;;;;;;15.70;11.88;;;14.80;99.90;;;;;;5019286;28;20084;-24
2023/10/01 05:06:13;;;;;;;16.38;11.65;;;14.80;99.90;;;;;;5038001;28;20123;-24
2023/10/01 05:08:42;;;;;;;17.15;11.45;;;14.80;99.90;;;;;;5034496;28;20653;-24
2023/10/01 05:11:13;;;;;;;16.33;11.35;;;14.80;99.90;;;;;;5033724;28;20073;-24
2023/10/01 05:13:47;;;;;;;16.80;11.65;;;14.80;99.90;;;;;;5023584;28;20053;-23
2023/10/01 05:16:18;;;;;;;17.58;11.38;;;14.80;99.90;;;;;;5033115;28;20103;-24
2023/10/01 05:18:45;;;;;;;16.92;11.60;;;14.80;99.90;;;;;;5026040;28;20132;-23
2023/10/01 05:21:18;;;;;;;14.85;11.30;;;14.80;99.90;;;;;;5037790;28;20535;-24
2023/10/01 05:23:45;;;;;;;15.13;11.05;;;14.80;99.90;;;;;;5043383;28;20044;-24
2023/10/01 05:26:11;;;;;;;16.33;11.45;;;14.90;99.90;;;;;;5016594;28;20041;-24
2023/10/01 05:28:41;;;;;;;15.15;10.80;;;14.90;99.90;;;;;;5051283;28;20552;-23
2023/10/01 05:31:08;;;;;;;15.05;10.27;;;14.90;99.90;;;;;;5030641;28;20053;-22
2023/10/01 05:33:35;;;;;;;14.45;10.10;;;14.90;99.90;;;;;;5023970;28;20461;-24
2023/10/01 05:36:04;;;;;;;16.38;10.40;;;14.90;99.90;;;;;;5037317;28;20377;-24
2023/10/01 05:38:34;;;;;;;15.40;10.88;;;14.90;99.90;;;;;;5031586;28;20167;-24
2023/10/01 05:41:03;;;;;;;15.60;9.98;;;14.90;99.90;;;;;;5036680;28;20495;-24
2023/10/01 05:43:37;;;;;;;16.40;9.93;;;14.90;99.90;;;;;;5022075;28;20405;-24
2023/10/01 05:46:08;;;;;;;15.65;10.52;;;14.90;99.90;;;;;;5029516;28;20044;-24
2023/10/01 05:48:35;;;;;;;13.38;10.48;;;15.00;99.90;;;;;;5033325;28;20040;-24
2023/10/01 05:51:02;;;;;;;15.88;10.93;;;14.90;99.90;;;;;;5037481;28;20123;-24
2023/10/01 05:53:30;;;;;;;15.55;10.45;;;14.90;99.90;;;;;;5031350;28;20048;-22
2023/10/01 05:56:10;;;;;;;14.45;10.20;;;14.90;99.90;;;;;;5040484;28;20368;-23
2023/10/01 05:58:36;;;;;;;17.08;10.90;;;14.90;99.90;;;;;;5030648;28;20037;-23
2023/10/01 06:01:05;;;;;;;14.65;10.40;;;14.90;99.90;;;;;;5029358;28;20076;-22
2023/10/01 06:03:33;;;;;;;15.45;9.93;;;14.90;99.90;;;;;;5038429;28;20045;-24
2023/10/01 06:06:08;;;;;;;16.25;10.30;;;14.90;99.90;;;;;;5020409;28;20041;-24
2023/10/01 06:08:44;;;;;;;15.02;9.65;;;14.90;99.90;;;;;;5031070;28;20041;-24
2023/10/01 06:11:13;;;;;;;15.98;9.95;;;15.00;99.90;;;;;;5029436;28;20041;-25
2023/10/01 06:13:48;;;;;;;15.35;9.80;;;15.00;99.90;;;;;;5017792;28;20044;-25
2023/10/01 06:16:23;;;;;;;14.32;9.98;;;15.00;99.90;;;;;;5040071;28;20400;-24
2023/10/01 06:18:57;;;;;;;16.40;10.38;;;15.00;99.90;;;;;;5036982;28;20049;-25
2023/10/01 06:21:25;;;;;;;13.73;9.25;;;15.00;99.90;;;;;;5020516;28;20045;-25
2023/10/01 06:23:58;;;;;;;15.90;10.40;;;15.00;99.90;;;;;;5029921;28;20076;-25
2023/10/01 06:26:45;;;;;;;15.00;9.75;;;15.00;99.90;;;;;;5033893;28;20037;-25
2023/10/01 06:29:13;;;;;;;16.95;9.73;;;15.00;99.90;;;;;;5009108;28;20049;-24
2023/10/01 06:31:48;;;;;;;12.65;9.85;;;15.00;99.90;;;;;;5042257;28;20041;-24
2023/10/01 06:34:23;;;;;;;16.83;10.90;;;15.10;99.90;;;;;;5030084;28;20400;-25
2023/10/01 06:36:55;;;;;;;15.80;9.75;;;15.10;99.90;;;;;;5033254;28;20450;-25
2023/10/01 06:39:23;;;;;;;14.63;9.97;;;15.10;99.90;;;;;;5038978;28;20038;-24
2023/10/01 06:41:49;;;;;;;15.23;9.65;;;15.10;99.90;;;;;;5026178;28;20034;-24
2023/10/01 06:44:16;;;;;;;15.13;10.48;;;15.10;99.90;;;;;;5034917;28;20525;-24
2023/10/01 06:46:42;;;;;;;14.63;10.10;;;15.10;99.90;;;;;;5042121;28;20067;-25
2023/10/01 06:49:10;;;;;;;15.63;10.55;;;15.10;99.90;;;;;;5039745;28;20037;-25
2023/10/01 06:51:43;;;;;;;15.77;10.80;;;15.10;99.90;;;;;;5025605;28;20033;-24
2023/10/01 06:54:13;;;;;;;15.38;10.52;;;15.10;99.90;;;;;;5042406;28;20081;-25
2023/10/01 06:56:47;;;;;;;14.80;10.27;;;15.20;99.90;;;;;;5036239;28;20041;-25
2023/10/01 06:59:32;;;;;;;15.93;9.60;;;15.20;99.90;;;;;;5037899;28;20083;-23
2023/10/01 07:01:59;;;;;;;14.55;10.40;;;15.20;99.90;;;;;;4999283;28;20192;-24
2023/10/01 07:04:25;;;;;;;15.23;10.23;;;15.20;99.90;;;;;;5034833;28;20077;-25
2023/10/01 07:06:51;;;;;;;14.60;10.18;;;15.20;99.90;;;;;;5044469;28;20048;-25
2023/10/01 07:09:24;;;;;;;13.15;9.80;;;15.10;99.90;;;;;;5035390;28;20029;-25
2023/10/01 07:12:20;;;;;;;14.45;9.43;;;15.10;99.90;;;;;;5038803;28;20091;-26
2023/10/01 07:14:46;;;;;;;15.38;9.88;;;15.10;99.90;;;;;;5030721;28;20053;-24
2023/10/01 07:17:18;;;;;;;16.83;9.82;;;15.20;99.90;;;;;;5059618;22;20307;-85
2023/10/01 07:19:45;;;;;;;14.02;9.43;;;15.20;99.90;;;;;;5038210;28;20048;-88
2023/10/01 07:22:14;;;;;;;14.98;10.13;;;15.30;99.90;;;;;;5053178;28;20395;-86
2023/10/01 07:24:43;;;;;;;15.88;8.93;;;15.20;99.90;;;;;;5054756;28;20033;-85
2023/10/01 07:27:11;;;;;;;15.75;9.70;;;15.30;99.90;;;;;;5038974;28;20047;-85
2023/10/01 07:29:41;;;;;;;15.45;10.27;;;15.30;99.90;;;;;;5033246;28;20114;-88
2023/10/01 07:32:08;;;;;;;14.23;8.52;;;15.40;99.90;;;;;;5035983;28;20449;-85
2023/10/01 07:34:45;;;;;;;18.30;9.25;;;15.50;99.90;;;;;;5037793;28;20040;-85
2023/10/01 07:37:18;;;;;;;16.08;9.75;;;15.50;99.90;;;;;;5046497;28;20037;-85
2023/10/01 07:39:55;;;;;;;15.50;9.38;;;15.60;99.90;;;;;;5037002;28;20092;-85
2023/10/01 07:42:25;;;;;;;12.65;8.95;;;15.70;99.90;;;;;;5036903;28;20037;-85
2023/10/01 07:44:52;;;;;;;13.35;9.00;;;15.80;99.90;;;;;;5052108;28;20101;-88
2023/10/01 07:47:34;;;;;;;14.25;9.27;;;15.80;99.90;;;;;;5036885;28;20129;-85
2023/10/01 07:50:05;;;;;;;13.70;9.90;;;15.80;99.90;;;;;;5037148;28;20037;-85
2023/10/01 07:52:36;;;;;;;15.65;10.55;;;15.80;99.90;;;;;;5057280;28;20509;-85
2023/10/01 07:55:29;;;;;;;13.73;9.45;;;15.90;99.90;;;;;;5030777;28;20032;-85
2023/10/01 07:57:49;;;;;;;15.35;9.80;;;15.90;99.90;;;;;;5050659;28;20074;-88
2023/10/01 08:00:29;;;;;;;14.43;9.85;;;16.00;99.90;;;;;;5046821;28;20045;-85
2023/10/01 08:05:38;;;;;;;17.05;9.90;;;16.20;99.90;;;;;;5054191;28;20665;-85
2023/10/01 08:08:08;;;;;;;13.85;8.88;;;16.40;99.90;;;;;;5042407;28;20033;-85
2023/10/01 08:10:37;;;;;;;14.32;9.30;;;16.70;99.90;;;;;;5037184;28;20127;-86
2023/10/01 08:13:06;;;;;;;12.95;9.25;;;16.80;99.90;;;;;;5051123;28;20040;-85
2023/10/01 08:15:38;;;;;;;14.15;8.35;;;16.90;99.90;;;;;;5036035;28;20051;-85
2023/10/01 08:18:26;;;;;;;12.68;8.38;;;16.90;99.90;;;;;;5034486;28;20044;-86
2023/10/01 08:20:58;;;;;;;13.85;8.35;;;16.90;99.90;;;;;;5031810;28;20152;-88
2023/10/01 08:23:33;;;;;;;14.15;8.57;;;16.80;99.90;;;;;;5035334;28;20033;-86
2023/10/01 08:26:39;;;;;;;12.55;8.38;;;16.80;99.90;;;;;;5040229;28;20379;-88
2023/10/01 08:28:55;;;;;;;13.32;8.18;;;16.80;99.90;;;;;;5047409;28;20053;-85
2023/10/01 08:31:43;;;;;;;12.10;7.60;;;16.80;99.90;;;;;;5052874;28;20037;-86
2023/10/01 08:34:22;;;;;;;11.55;7.70;;;16.80;99.90;;;;;;5056707;28;20049;-85
2023/10/01 08:36:56;;;;;;;14.10;8.13;;;16.80;99.90;;;;;;5035365;28;20128;-86
2023/10/01 08:39:34;;;;;;;;;;;16.90;99.90;;;;;;5044096;28;20025;-85
2023/10/01 08:42:08;;;;;;;13.73;7.85;;;16.90;99.90;;;;;;5035535;28;19916;-86
2023/10/01 08:44:46;;;;;;;13.73;7.88;;;17.00;99.90;;;;;;5051877;28;20595;-85
2023/10/01 08:47:31;;;;;;;12.60;8.00;;;17.00;99.90;;;;;;5056259;28;20082;-85
2023/10/01 08:50:45;;;;;;;14.52;8.50;;;17.20;99.90;;;;;;5033167;28;20044;-86
2023/10/01 08:52:57;;;;;;;14.15;8.15;;;17.20;99.90;;;;;;5050947;28;20106;-88
2023/10/01 08:55:40;;;;;;;13.00;8.45;;;17.20;99.90;;;;;;5054533;28;20039;-85
2023/10/01 09:00:56;;;;;;;12.52;7.93;;;17.40;99.90;;;;;;5052504;28;20527;-86
2023/10/01 09:03:30;;;;;;;13.27;7.78;;;17.50;99.90;;;;;;5036454;28;20044;-85
2023/10/01 09:06:04;;;;;;;12.73;8.23;;;17.60;99.90;;;;;;5047612;28;20505;-86
2023/10/01 09:08:42;;;;;;;15.25;9.50;;;17.80;99.90;;;;;;5034871;28;20045;-85
2023/10/01 09:11:12;;;;;;;12.80;7.43;;;18.00;99.90;;;;;;5064983;28;20063;-86
2023/10/01 09:14:15;;;;;;;11.70;7.50;;;18.10;99.90;;;;;;5036496;28;20071;-85
2023/10/01 09:16:45;;;;;;;13.43;7.35;;;18.40;99.90;;;;;;5032316;28;20490;-85
2023/10/01 09:19:35;;;;;;;11.02;6.85;;;18.40;99.90;;;;;;5056394;28;20086;-85
2023/10/01 09:22:22;;;;;;;12.95;7.43;;;18.60;99.90;;;;;;5053717;28;20043;-86
2023/10/01 09:25:01;;;;;;;12.98;7.38;;;18.80;99.90;;;;;;5052774;28;20045;-86
2023/10/01 09:27:30;;;;;;;12.45;7.25;;;19.10;99.90;;;;;;5036730;28;20048;-85
2023/10/01 09:30:26;;;;;;;11.85;7.00;;;19.50;99.90;;;;;;5036782;28;20141;-86
2023/10/01 09:32:55;;;;;;;12.18;7.57;;;19.50;99.90;;;;;;5076917;28;20024;-86
2023/10/01 09:35:38;;;;;;;10.93;7.32;;;19.50;99.90;;;;;;5037032;28;20040;-86
2023/10/01 09:38:12;;;;;;;13.30;7.93;;;19.50;99.90;;;;;;5051845;28;20041;-86
2023/10/01 09:40:42;;;;;;;12.02;7.60;;;19.40;99.90;;;;;;5053430;28;20040;-85
2023/10/01 09:43:19;;;;;;;11.05;7.00;;;19.40;99.90;;;;;;5055503;28;20115;-86
2023/10/01 09:45:49;;;;;;;10.55;6.45;;;19.50;99.90;;;;;;5052606;28;20036;-86
2023/10/01 09:48:37;;;;;;;10.18;7.15;;;19.40;99.90;;;;;;5032003;28;20033;-85
2023/10/01 09:51:18;;;;;;;10.30;7.38;;;19.40;99.90;;;;;;5052581;28;20048;-86
2023/10/01 09:54:00;;;;;;;12.30;7.50;;;19.40;99.90;;;;;;5055175;28;20528;-86
2023/10/01 09:59:11;;;;;;;11.38;7.78;;;19.50;99.90;;;;;;5054620;28;20072;-86
2023/10/01 10:01:41;;;;;;;11.02;6.97;;;19.70;99.90;;;;;;5054736;28;20039;-86
2023/10/01 10:04:10;;;;;;;13.27;7.43;;;20.10;99.90;;;;;;5036894;28;20041;-87
2023/10/01 10:06:41;;;;;;;13.85;7.53;;;20.50;99.90;;;;;;5048624;28;20469;-87
2023/10/01 10:09:26;;;;;;;11.52;7.55;;;20.70;99.90;;;;;;5050759;28;20490;-87
2023/10/01 10:11:55;;;;;;;13.88;7.43;;;20.80;99.90;;;;;;5051425;28;20036;-87
2023/10/01 10:14:26;;;;;;;12.88;7.90;;;20.70;99.90;;;;;;5035623;28;20055;-87
2023/10/01 10:16:56;;;;;;;13.32;7.65;;;20.50;99.90;;;;;;5028146;28;20123;-86
2023/10/01 10:19:23;;;;;;;14.13;7.32;;;20.50;99.90;;;;;;5067212;28;20094;-87
2023/10/01 10:24:33;;;;;;;11.82;7.53;;;20.80;99.90;;;;;;5050498;28;20037;-86
2023/10/01 10:27:17;;;;;;;13.02;7.43;;;20.90;99.90;;;;;;5053820;28;20036;-87
2023/10/01 10:29:57;;;;;;;12.48;7.72;;;20.90;99.90;;;;;;5067066;28;20115;-87
2023/10/01 10:32:24;;;;;;;12.18;7.55;;;20.90;99.90;;;;;;5035500;28;20028;-87
2023/10/01 10:35:06;;;;;;;13.88;7.75;;;20.80;99.90;;;;;;5050286;28;20048;-86
2023/10/01 10:37:38;;;;;;;13.85;8.07;;;21.00;99.90;;;;;;5052849;28;20068;-87
2023/10/01 10:40:22;;;;;;;9.55;7.13;;;21.10;99.90;;;;;;5061603;28;20116;-88
2023/10/01 10:43:00;;;;;;;12.30;7.80;;;21.50;99.90;;;;;;5035493;28;20040;-88
2023/10/01 10:45:42;;;;;;;13.07;7.53;;;21.70;99.90;;;;;;5033221;28;20050;-88
2023/10/01 10:48:14;;;;;;;12.77;7.53;;;21.80;99.90;;;;;;5036221;28;20410;-88
2023/10/01 10:50:48;;;;;;;13.38;7.53;;;22.00;99.90;;;;;;5031924;28;20041;-87
2023/10/01 10:53:19;;;;;;;10.88;7.45;;;22.30;99.90;;;;;;5055983;28;20036;-87
2023/10/01 10:56:02;;;;;;;15.80;8.68;;;22.60;99.90;;;;;;5037010;28;20101;-87
2023/10/01 10:58:37;;;;;;;12.82;7.97;;;23.20;99.90;;;;;;5046358;28;20044;-88
2023/10/01 11:01:16;;;;;;;13.07;8.05;;;23.70;99.90;;;;;;5055198;28;20041;-88
2023/10/01 11:03:43;;;;;;;13.38;7.50;;;23.90;99.90;;;;;;5051612;28;20472;-88
2023/10/01 11:06:47;;;;;;;15.63;7.50;;;23.90;99.90;;;;;;5039295;28;20040;-88
2023/10/01 11:09:29;;;;;;;12.35;7.93;;;23.70;99.90;;;;;;5026028;28;20590;-88
2023/10/01 11:12:07;;;;;;;13.50;7.63;;;23.50;99.90;;;;;;5050218;28;20075;-88
2023/10/01 11:14:37;;;;;;;14.50;7.80;;;23.20;99.90;;;;;;5049767;28;20109;-87
2023/10/01 11:17:06;;;;;;;11.05;7.60;;;23.00;99.90;;;;;;5052552;28;20037;-87
2023/10/01 11:19:47;;;;;;;12.98;7.50;;;22.90;99.90;;;;;;5036413;28;20371;-87
2023/10/01 11:22:13;;;;;;;11.95;7.57;;;22.90;99.90;;;;;;5055973;28;20119;-87
2023/10/01 11:24:40;;;;;;;14.43;7.60;;;22.90;99.90;;;;;;5039986;28;20438;-87
2023/10/01 11:28:04;;;;;;;12.93;8.05;;;23.00;99.90;;;;;;5041422;28;20418;-87
2023/10/01 11:30:12;;;;;;;12.18;7.40;;;22.90;99.90;;;;;;5045202;28;20056;-87
2023/10/01 11:35:36;;;;;;;13.93;7.55;;;22.90;99.90;;;;;;5052848;28;20127;-88
2023/10/01 11:38:08;;;;;;;15.35;7.88;;;22.80;99.90;;;;;;5052292;28;20049;-87
2023/10/01 11:43:27;;;;;;;11.68;7.82;;;22.80;99.90;;;;;;5072594;28;20045;-88
2023/10/01 11:46:24;;;;;;;12.70;7.65;;;22.80;99.90;;;;;;5037457;28;20039;-87
2023/10/01 11:49:09;;;;;;;14.20;7.53;;;22.90;99.90;;;;;;5053638;28;20102;-87
2023/10/01 11:51:45;;;;;;;12.93;7.00;;;22.90;99.90;;;;;;5038396;28;20049;-87
2023/10/01 11:54:16;;;;;;;13.38;7.60;;;22.80;99.90;;;;;;5055493;28;20121;-88
2023/10/01 11:56:44;;;;;;;11.07;7.40;;;22.70;99.90;;;;;;5038636;28;20042;-87
2023/10/01 11:59:19;;;;;;;11.88;7.15;;;22.60;99.90;;;;;;5061905;28;20044;-88
2023/10/01 12:01:51;;;;;;;11.63;7.10;;;22.60;99.90;;;;;;5034666;28;20044;-87
2023/10/01 12:05:04;;;;;;;10.55;6.60;;;22.60;99.90;;;;;;5067367;28;20421;-87
2023/10/01 12:07:15;;;;;;;11.10;6.25;;;22.60;99.90;;;;;;5039825;28;20074;-88
2023/10/01 12:09:48;;;;;;;12.27;7.25;;;22.70;99.90;;;;;;5036547;28;20041;-88
2023/10/01 12:12:18;;;;;;;11.95;7.28;;;22.90;99.90;;;;;;5036706;28;20060;-88
2023/10/01 12:14:53;;;;;;;10.95;6.82;;;22.90;99.90;;;;;;5037744;28;20040;-88
2023/10/01 12:17:29;;;;;;;10.20;6.38;;;23.10;99.90;;;;;;5045351;28;20048;-88
2023/10/01 12:20:01;;;;;;;11.65;7.20;;;23.30;99.90;;;;;;5037402;28;20068;-88
2023/10/01 12:22:28;;;;;;;10.55;6.07;;;23.50;99.90;;;;;;5055683;28;20128;-88
2023/10/01 12:24:58;;;;;;;11.57;6.57;;;23.70;99.90;;;;;;5051464;28;20033;-88
2023/10/01 12:27:37;;;;;;;10.30;6.78;;;23.80;99.90;;;;;;5035340;28;20036;-87
2023/10/01 12:30:11;;;;;;;9.90;6.40;;;23.90;99.90;;;;;;5055840;28;20433;-88
2023/10/01 12:32:48;;;;;;;11.15;6.75;;;24.10;99.90;;;;;;5036336;28;20115;-87
2023/10/01 12:35:29;;;;;;;10.23;6.72;;;24.10;99.90;;;;;;5036745;28;20188;-88
2023/10/01 12:38:05;;;;;;;10.63;6.82;;;24.10;99.90;;;;;;5050690;28;20167;-88
2023/10/01 12:40:35;;;;;;;14.70;7.18;;;24.30;99.90;;;;;;5051686;28;20040;-87
2023/10/01 12:45:52;;;;;;;11.55;6.72;;;24.80;99.90;;;;;;5047895;28;20096;-87
2023/10/01 12:48:20;;;;;;;13.50;6.88;;;24.90;99.90;;;;;;5068057;28;20037;-88
2023/10/01 12:51:03;;;;;;;11.98;6.55;;;25.20;99.90;;;;;;5050052;28;20037;-88
2023/10/01 12:53:34;;;;;;;11.30;6.38;;;25.50;99.90;;;;;;5032292;28;20119;-88
2023/10/01 12:56:03;;;;;;;11.27;6.95;;;26.00;99.90;;;;;;5033842;28;20106;-88
2023/10/01 12:58:36;;;;;;;12.07;6.10;;;26.30;99.90;;;;;;5036834;28;20051;-87
2023/10/01 13:01:07;;;;;;;10.43;6.20;;;26.50;99.90;;;;;;5054909;28;20116;-88
2023/10/01 13:03:42;;;;;;;12.07;6.70;;;26.40;99.90;;;;;;5041653;28;20056;-87
2023/10/01 13:06:12;;;;;;;9.43;6.40;;;26.50;99.90;;;;;;5038340;28;20043;-88
2023/10/01 13:08:41;;;;;;;9.75;5.30;;;26.40;99.90;;;;;;5053839;28;20407;-88
2023/10/01 13:11:07;;;;;;;8.75;5.22;;;26.10;99.90;;;;;;5054280;28;20033;-88
2023/10/01 13:13:35;;;;;;;10.18;5.60;;;25.80;99.90;;;;;;5060621;28;20040;-87
2023/10/01 13:16:01;;;;;;;9.40;5.85;;;25.40;99.90;;;;;;5072707;28;20518;-88
2023/10/01 13:18:32;;;;;;;9.52;5.57;;;25.10;99.90;;;;;;5130056;22;20465;-83
2023/10/01 13:21:06;;;;;;;8.25;5.82;;;24.90;99.90;;;;;;5069862;28;20040;-83
2023/10/01 13:23:41;;;;;;;11.95;5.97;;;24.80;99.90;;;;;;5063505;28;20088;-82
2023/10/01 13:26:24;;;;;;;9.13;5.32;;;24.80;99.90;;;;;;5055476;28;20036;-83
2023/10/01 13:28:53;;;;;;;9.85;5.75;;;25.00;99.90;;;;;;5033571;28;20032;-83
2023/10/01 13:34:09;;;;;;;9.23;5.50;;;25.50;99.90;;;;;;5048315;28;20051;-83
2023/10/01 13:36:47;;;;;;;8.43;5.93;;;25.90;99.90;;;;;;5028996;28;20044;-83
2023/10/01 13:39:25;;;;;;;8.82;5.30;;;26.40;99.90;;;;;;5049703;28;20153;-83
2023/10/01 14:15:04;;;;;;;10.85;5.97;;;27.40;97.30;;;;;;5054931;28;20094;-83
2023/10/01 14:17:29;;;;;;;8.02;5.68;;;26.90;97.60;;;;;;5049027;28;20048;-84
2023/10/01 14:19:55;;;;;;;8.63;5.53;;;26.40;98.00;;;;;;5028075;28;20411;-83
2023/10/01 14:22:21;;;;;;;9.13;5.93;;;26.00;98.50;;;;;;5048872;28;20158;-83
2023/10/01 14:24:47;;;;;;;9.75;5.65;;;25.70;99.40;;;;;;5033402;28;20043;-83